createdAt,value
2023-01-24T00:00:43.398Z,103447.59
2023-01-24T00:03:13.324Z,103446.91
2023-01-24T00:05:41.222Z,103443.09
2023-01-24T00:08:07.789Z,103442.84
2023-01-24T00:10:34.474Z,103443.94
2023-01-24T00:13:00.895Z,103443.75
2023-01-24T00:15:27.368Z,103454.09
2023-01-24T00:17:54.023Z,103443.94
2023-01-24T00:20:20.617Z,103446.16
2023-01-24T00:22:47.056Z,103446.97
2023-01-24T00:25:13.925Z,103449.84
2023-01-24T00:27:40.659Z,103449.28
2023-01-24T00:30:07.703Z,103447.00
2023-01-24T00:32:34.201Z,103447.72
2023-01-24T00:35:00.612Z,103443.09
2023-01-24T00:37:28.578Z,103439.13
2023-01-24T00:39:55.002Z,103439.94
2023-01-24T00:42:21.471Z,103443.63
2023-01-24T00:44:47.989Z,103431.97
2023-01-24T00:47:14.704Z,103421.34
2023-01-24T00:49:41.356Z,103432.41
2023-01-24T00:52:08.056Z,103433.34
2023-01-24T00:54:36.134Z,103426.16
2023-01-24T00:57:02.763Z,103438.00
2023-01-24T00:59:29.192Z,103439.94
2023-01-24T01:01:55.624Z,103436.44
2023-01-24T01:04:22.073Z,103431.19
2023-01-24T01:06:48.536Z,103419.22
2023-01-24T01:09:15.100Z,103423.72
2023-01-24T01:11:42.645Z,103427.84
2023-01-24T01:14:10.303Z,103432.06
2023-01-24T01:16:39.594Z,103432.63
2023-01-24T01:19:06.495Z,103427.00
2023-01-24T01:21:33.255Z,103428.41
2023-01-24T01:23:59.699Z,103434.84
2023-01-24T01:26:26.126Z,103430.78
2023-01-24T01:28:52.546Z,103432.06
2023-01-24T01:31:19.251Z,103432.03
2023-01-24T01:33:46.527Z,103427.81
2023-01-24T01:36:13.582Z,103435.72
2023-01-24T01:38:40.107Z,103440.53
2023-01-24T01:41:06.625Z,103430.22
2023-01-24T01:43:33.095Z,103436.44
2023-01-24T01:46:20.711Z,103436.44
2023-01-24T01:48:54.507Z,103426.25
2023-01-24T01:51:21.252Z,103427.41
2023-01-24T01:53:54.863Z,103430.22
2023-01-24T01:56:30.147Z,103434.38
2023-01-24T01:58:59.753Z,103426.66
2023-01-24T02:01:27.535Z,103417.25
2023-01-24T02:04:15.912Z,103420.19
2023-01-24T02:06:57.369Z,103420.22
2023-01-24T02:09:29.568Z,103425.00
2023-01-24T02:12:01.075Z,103418.63
2023-01-24T02:14:48.721Z,103422.28
2023-01-24T02:17:20.279Z,103425.44
2023-01-24T02:19:55.605Z,103423.88
2023-01-24T02:22:26.257Z,103430.25
2023-01-24T02:25:02.306Z,103430.09
2023-01-24T02:27:29.064Z,103425.56
2023-01-24T02:29:57.510Z,103421.50
2023-01-24T02:32:23.984Z,103418.66
2023-01-24T02:34:50.555Z,103414.84
2023-01-24T02:37:20.429Z,103420.31
2023-01-24T02:40:03.286Z,103417.34
2023-01-24T02:42:35.322Z,103420.88
2023-01-24T02:45:10.853Z,103406.78
2023-01-24T02:47:47.641Z,103419.63
2023-01-24T02:50:14.978Z,103415.94
2023-01-24T02:53:00.035Z,103417.75
2023-01-24T02:55:26.930Z,103402.84
2023-01-24T02:58:07.416Z,103402.00
2023-01-24T03:00:40.038Z,103410.03
2023-01-24T03:03:08.077Z,103403.56
2023-01-24T03:05:47.593Z,103404.81
2023-01-24T03:08:16.811Z,103400.59
2023-01-24T03:10:43.654Z,103392.97
2023-01-24T03:13:28.871Z,103401.16
2023-01-24T03:16:14.256Z,103398.75
2023-01-24T03:19:00.684Z,103394.66
2023-01-24T03:21:46.174Z,103404.50
2023-01-24T03:24:31.576Z,103393.22
2023-01-24T03:27:16.797Z,103395.78
2023-01-24T03:30:01.934Z,103386.47
2023-01-24T03:32:47.714Z,103401.28
2023-01-24T03:35:14.361Z,103395.47
2023-01-24T03:37:59.679Z,103403.91
2023-01-24T03:40:28.727Z,103410.56
2023-01-24T03:42:55.503Z,103398.84
2023-01-24T03:45:31.257Z,103405.28
2023-01-24T03:48:00.041Z,103412.53
2023-01-24T03:50:50.607Z,103410.66
2023-01-24T03:53:18.337Z,103412.00
2023-01-24T03:55:47.740Z,103418.59
2023-01-24T03:58:15.083Z,103413.91
2023-01-24T04:00:41.819Z,103414.75
2023-01-24T04:03:24.859Z,103411.88
2023-01-24T04:05:52.313Z,103414.88
2023-01-24T04:08:19.473Z,103421.38
2023-01-24T04:10:48.066Z,103408.25
2023-01-24T04:13:15.193Z,103412.59
2023-01-24T04:15:41.950Z,103413.72
2023-01-24T04:18:28.643Z,103418.13
2023-01-24T04:20:56.285Z,103415.91
2023-01-24T04:23:24.602Z,103417.06
2023-01-24T04:25:57.696Z,103415.91
2023-01-24T04:28:25.383Z,103410.16
2023-01-24T04:31:00.406Z,103415.63
2023-01-24T04:33:47.207Z,103398.66
2023-01-24T04:36:15.162Z,103397.50
2023-01-24T04:38:42.839Z,103403.31
2023-01-24T04:41:16.127Z,103416.16
2023-01-24T04:43:43.827Z,103405.59
2023-01-24T04:46:11.177Z,103419.13
2023-01-24T04:48:51.287Z,103423.13
2023-01-24T04:51:17.903Z,103421.38
2023-01-24T04:53:46.145Z,103416.13
2023-01-24T04:56:15.163Z,103411.06
2023-01-24T04:58:42.016Z,103424.97
2023-01-24T05:01:08.655Z,103431.31
2023-01-24T05:03:43.737Z,103428.59
2023-01-24T05:06:10.932Z,103435.06
2023-01-24T05:08:37.381Z,103428.06
2023-01-24T05:11:05.499Z,103428.88
2023-01-24T05:13:36.774Z,103434.41
2023-01-24T05:16:04.010Z,103427.53
2023-01-24T05:18:31.226Z,103427.06
2023-01-24T05:21:05.580Z,103429.72
2023-01-24T05:23:32.175Z,103432.41
2023-01-24T05:25:59.968Z,103436.09
2023-01-24T05:28:26.835Z,103431.88
2023-01-24T05:31:05.731Z,103431.88
2023-01-24T05:33:32.644Z,103427.53
2023-01-24T05:36:20.037Z,103424.00
2023-01-24T05:38:48.272Z,103429.06
2023-01-24T05:41:18.482Z,103432.75
2023-01-24T05:43:46.446Z,103432.91
2023-01-24T05:46:19.488Z,103431.19
2023-01-24T05:48:56.166Z,103434.78
2023-01-24T05:51:23.559Z,103433.69
2023-01-24T05:53:50.222Z,103440.69
2023-01-24T05:56:36.622Z,103445.09
2023-01-24T05:59:03.158Z,103458.66
2023-01-24T06:01:29.653Z,103445.81
2023-01-24T06:03:57.210Z,103454.06
2023-01-24T06:06:25.492Z,103458.72
2023-01-24T06:08:52.268Z,103452.50
2023-01-24T06:11:26.982Z,103454.63
2023-01-24T06:14:03.579Z,103454.34
2023-01-24T06:16:31.238Z,103451.81
2023-01-24T06:18:58.007Z,103464.34
2023-01-24T06:21:37.508Z,103452.81
2023-01-24T06:24:06.093Z,103458.28
2023-01-24T06:26:46.407Z,103455.88
2023-01-24T06:29:14.200Z,103460.78
2023-01-24T06:32:02.894Z,103462.13
2023-01-24T06:34:38.395Z,103472.34
2023-01-24T06:37:16.565Z,103473.94
2023-01-24T06:39:51.219Z,103468.81
2023-01-24T06:42:23.570Z,103465.59
2023-01-24T06:44:50.957Z,103473.94
2023-01-24T06:47:17.638Z,103491.31
2023-01-24T06:49:44.270Z,103480.88
2023-01-24T06:52:12.251Z,103479.16
2023-01-24T06:54:38.711Z,103485.66
2023-01-24T06:57:05.449Z,103486.66
2023-01-24T06:59:31.903Z,103489.75
2023-01-24T07:01:58.864Z,103492.97
2023-01-24T07:04:25.263Z,103481.69
2023-01-24T07:06:54.641Z,103495.50
2023-01-24T07:09:21.966Z,103499.50
2023-01-24T07:11:50.537Z,103499.66
2023-01-24T07:14:17.052Z,103510.09
2023-01-24T07:16:43.509Z,103497.81
2023-01-24T07:19:15.407Z,103503.72
2023-01-24T07:21:42.129Z,103487.63
2023-01-24T07:24:17.937Z,103497.22
2023-01-24T07:26:45.043Z,103504.69
2023-01-24T07:29:12.221Z,103500.75
2023-01-24T07:31:39.295Z,103495.09
2023-01-24T07:34:06.186Z,103499.84
2023-01-24T07:36:32.886Z,103514.16
2023-01-24T07:38:59.337Z,103500.75
2023-01-24T07:41:25.835Z,103514.56
2023-01-24T07:43:53.979Z,103503.13
2023-01-24T07:46:21.299Z,103513.19
2023-01-24T07:48:47.892Z,103511.59
2023-01-24T07:51:14.341Z,103524.31
2023-01-24T07:53:40.758Z,103518.97
2023-01-24T07:56:10.406Z,103526.56
2023-01-24T07:58:41.407Z,103525.13
2023-01-24T08:01:08.038Z,103523.63
2023-01-24T08:03:34.741Z,103525.56
2023-01-24T08:06:02.626Z,103528.25
2023-01-24T08:08:29.061Z,103527.56
2023-01-24T08:10:55.564Z,103532.91
2023-01-24T08:13:23.053Z,103533.06
2023-01-24T08:15:49.672Z,103527.69
2023-01-24T08:18:16.338Z,103537.03
2023-01-24T08:20:42.931Z,103534.91
2023-01-24T08:23:09.524Z,103531.22
2023-01-24T08:25:36.053Z,103542.66
2023-01-24T08:28:04.521Z,103545.63
2023-01-24T08:30:30.983Z,103553.66
2023-01-24T08:33:06.153Z,103548.44
2023-01-24T08:35:33.804Z,103550.16
2023-01-24T08:38:00.347Z,103558.72
2023-01-24T08:40:33.141Z,103555.50
2023-01-24T08:43:04.854Z,103559.00
2023-01-24T08:45:31.653Z,103557.19
2023-01-24T08:47:58.074Z,103551.69
2023-01-24T08:50:24.799Z,103557.44
2023-01-24T08:52:55.611Z,103557.59
2023-01-24T08:55:22.409Z,103555.03
2023-01-24T08:57:48.997Z,103562.38
2023-01-24T09:00:16.193Z,103555.91
2023-01-24T09:02:42.787Z,103558.19
2023-01-24T09:05:09.953Z,103557.72
2023-01-24T09:07:37.426Z,103561.53
2023-01-24T09:10:05.559Z,103556.75
2023-01-24T09:12:32.852Z,103567.75
2023-01-24T09:14:59.574Z,103573.09
2023-01-24T09:17:26.290Z,103567.06
2023-01-24T09:19:52.807Z,103564.94
2023-01-24T09:22:19.987Z,103573.53
2023-01-24T09:24:47.367Z,103570.16
2023-01-24T09:27:14.234Z,103565.22
2023-01-24T09:29:40.876Z,103568.31
2023-01-24T09:32:07.665Z,103566.63
2023-01-24T09:34:34.114Z,103572.00
2023-01-24T09:37:00.800Z,103573.53
2023-01-24T09:39:27.198Z,103570.28
2023-01-24T09:42:12.533Z,103576.47
2023-01-24T09:44:51.107Z,103570.44
2023-01-24T09:47:46.078Z,103585.81
2023-01-24T09:50:34.072Z,103583.97
2023-01-24T09:53:00.747Z,103582.13
2023-01-24T09:55:37.925Z,103586.50
2023-01-24T09:58:32.617Z,103583.53
2023-01-24T10:01:11.822Z,103584.25
2023-01-24T10:03:39.392Z,103579.44
2023-01-24T10:06:29.500Z,103583.28
2023-01-24T10:09:13.852Z,103580.59
2023-01-24T10:11:56.943Z,103574.53
2023-01-24T10:14:42.104Z,103575.94
2023-01-24T10:17:14.741Z,103574.41
2023-01-24T10:19:59.608Z,103572.69
2023-01-24T10:22:26.071Z,103565.63
2023-01-24T10:25:00.919Z,103564.94
2023-01-24T10:27:34.503Z,103563.53
2023-01-24T10:30:25.203Z,103560.28
2023-01-24T10:32:56.689Z,103561.84
2023-01-24T10:35:29.821Z,103560.69
2023-01-24T10:37:59.425Z,103559.84
2023-01-24T10:40:26.622Z,103558.47
2023-01-24T10:42:53.450Z,103560.44
2023-01-24T10:45:36.608Z,103561.00
2023-01-24T10:48:24.723Z,103567.19
2023-01-24T10:50:51.164Z,103563.69
2023-01-24T10:53:31.369Z,103554.91
2023-01-24T10:56:02.573Z,103555.38
2023-01-24T10:58:39.311Z,103544.91
2023-01-24T11:01:19.998Z,103544.44
2023-01-24T11:03:50.461Z,103537.69
2023-01-24T11:06:38.070Z,103541.22
2023-01-24T11:09:11.294Z,103548.41
2023-01-24T11:11:44.471Z,103539.50
2023-01-24T11:14:15.752Z,103543.59
2023-01-24T11:16:45.724Z,103534.59
2023-01-24T11:19:27.505Z,103536.97
2023-01-24T11:21:59.586Z,103543.06
2023-01-24T11:24:27.528Z,103546.88
2023-01-24T11:26:59.680Z,103537.84
2023-01-24T11:29:26.141Z,103531.34
2023-01-24T11:31:56.255Z,103533.47
2023-01-24T11:34:35.874Z,103534.75
2023-01-24T11:37:22.688Z,103535.69
2023-01-24T11:40:14.642Z,103527.81
2023-01-24T11:43:10.951Z,103529.31
2023-01-24T11:46:08.908Z,103525.06
2023-01-24T11:48:51.462Z,103518.59
2023-01-24T11:51:31.105Z,103510.94
2023-01-24T11:53:57.773Z,103507.56
2023-01-24T11:56:49.845Z,103505.78
2023-01-24T11:59:25.670Z,103494.03
2023-01-24T12:02:06.710Z,103493.88
2023-01-24T12:04:46.875Z,103484.38
2023-01-24T12:07:29.436Z,103490.25
2023-01-24T12:10:08.938Z,103483.84
2023-01-24T12:12:55.336Z,103473.53
2023-01-24T12:15:30.894Z,103469.78
2023-01-24T12:18:09.132Z,103477.75
2023-01-24T12:20:59.960Z,103467.44
2023-01-24T12:23:52.345Z,103454.69
2023-01-24T12:26:26.398Z,103459.53
2023-01-24T12:29:17.469Z,103457.69
2023-01-24T12:31:51.057Z,103458.16
2023-01-24T12:34:40.201Z,103438.47
2023-01-24T12:37:27.581Z,103439.28
2023-01-24T12:40:12.162Z,103440.22
2023-01-24T12:43:00.863Z,103436.38
2023-01-24T12:45:39.939Z,103441.38
2023-01-24T12:48:17.142Z,103436.47
2023-01-24T12:51:00.627Z,103431.28
2023-01-24T12:53:38.056Z,103437.50
2023-01-24T12:56:15.795Z,103436.50
2023-01-24T12:58:48.868Z,103431.69
2023-01-24T13:01:27.090Z,103432.75
2023-01-24T13:04:17.139Z,103427.25
2023-01-24T13:06:46.855Z,103441.34
2023-01-24T13:09:27.340Z,103436.81
2023-01-24T13:11:56.836Z,103438.13
2023-01-24T13:14:28.408Z,103439.50
2023-01-24T13:17:22.473Z,103442.72
2023-01-24T13:19:54.812Z,103445.88
2023-01-24T13:22:31.547Z,103446.16
2023-01-24T13:24:57.910Z,103453.06
2023-01-24T13:27:45.651Z,103459.47
2023-01-24T13:30:31.344Z,103459.53
2023-01-24T13:33:02.590Z,103445.13
2023-01-24T13:35:32.735Z,103448.50
2023-01-24T13:38:07.190Z,103453.31
2023-01-24T13:40:36.115Z,103454.31
2023-01-24T13:43:04.964Z,103452.22
2023-01-24T13:45:42.228Z,103444.81
2023-01-24T13:48:40.642Z,103459.13
2023-01-24T13:51:31.595Z,103451.81
2023-01-24T13:54:38.278Z,103445.44
2023-01-24T13:57:19.738Z,103447.00
2023-01-24T14:00:06.038Z,103442.38
2023-01-24T14:02:59.839Z,103444.50
2023-01-24T14:05:29.266Z,103445.63
2023-01-24T14:08:21.931Z,103450.44
2023-01-24T14:10:57.404Z,103452.53
2023-01-24T14:13:48.841Z,103452.06
2023-01-24T14:16:24.707Z,103446.81
2023-01-24T14:18:59.167Z,103452.22
2023-01-24T14:21:33.415Z,103451.34
2023-01-24T14:24:18.959Z,103453.63
2023-01-24T14:26:46.008Z,103467.75
2023-01-24T14:29:26.966Z,103455.78
2023-01-24T14:31:56.340Z,103455.09
2023-01-24T14:34:28.344Z,103461.69
2023-01-24T14:37:04.652Z,103463.69
2023-01-24T14:39:31.302Z,103454.75
2023-01-24T14:42:03.189Z,103452.56
2023-01-24T14:44:34.788Z,103450.56
2023-01-24T14:47:03.974Z,103453.44
2023-01-24T14:49:45.026Z,103457.56
2023-01-24T14:52:22.570Z,103450.56
2023-01-24T14:54:58.996Z,103446.22
2023-01-24T14:57:32.494Z,103446.09
2023-01-24T14:59:59.853Z,103445.00
2023-01-24T15:02:26.345Z,103433.94
2023-01-24T15:04:53.123Z,103436.88
2023-01-24T15:07:19.572Z,103441.13
2023-01-24T15:09:46.193Z,103433.28
2023-01-24T15:12:28.115Z,103438.75
2023-01-24T15:14:55.729Z,103437.78
2023-01-24T15:17:25.989Z,103432.53
2023-01-24T15:19:57.229Z,103444.41
2023-01-24T15:22:25.770Z,103438.00
2023-01-24T15:24:57.630Z,103433.06
2023-01-24T15:27:33.194Z,103437.84
2023-01-24T15:30:06.076Z,103441.66
2023-01-24T15:32:35.722Z,103438.69
2023-01-24T15:35:21.871Z,103434.00
2023-01-24T15:38:00.309Z,103440.81
2023-01-24T15:40:28.128Z,103436.84
2023-01-24T15:43:13.547Z,103440.56
2023-01-24T15:46:16.005Z,103430.50
2023-01-24T15:49:33.186Z,103434.31
2023-01-24T15:52:10.210Z,103440.94
2023-01-24T15:54:41.722Z,103440.41
2023-01-24T15:57:24.875Z,103443.53
2023-01-24T16:00:09.762Z,103434.19
2023-01-24T16:02:36.580Z,103431.25
2023-01-24T16:05:12.394Z,103438.31
2023-01-24T16:07:38.816Z,103432.69
2023-01-24T16:10:06.340Z,103439.56
2023-01-24T16:12:34.776Z,103436.44
2023-01-24T16:15:09.381Z,103436.34
2023-01-24T16:17:36.684Z,103430.41
2023-01-24T16:20:05.973Z,103434.38
2023-01-24T16:22:34.148Z,103426.50
2023-01-24T16:25:00.567Z,103424.75
2023-01-24T16:27:31.990Z,103425.72
2023-01-24T16:29:58.422Z,103431.72
2023-01-24T16:32:24.947Z,103428.00
2023-01-24T16:34:51.374Z,103424.94
2023-01-24T16:37:21.310Z,103417.19
2023-01-24T16:39:49.317Z,103412.38
2023-01-24T16:42:18.682Z,103412.50
2023-01-24T16:44:57.317Z,103415.50
2023-01-24T16:47:28.741Z,103422.97
2023-01-24T16:49:56.765Z,103421.25
2023-01-24T16:52:25.293Z,103424.06
2023-01-24T16:54:52.262Z,103415.38
2023-01-24T16:57:19.091Z,103425.63
2023-01-24T16:59:47.526Z,103415.06
2023-01-24T17:02:14.201Z,103413.53
2023-01-24T17:04:40.798Z,103411.53
2023-01-24T17:07:07.935Z,103416.22
2023-01-24T17:09:35.735Z,103416.78
2023-01-24T17:12:13.663Z,103423.03
2023-01-24T17:14:41.621Z,103431.88
2023-01-24T17:17:08.396Z,103427.22
2023-01-24T17:19:35.417Z,103429.34
2023-01-24T17:22:02.807Z,103423.72
2023-01-24T17:24:29.281Z,103419.88
2023-01-24T17:26:56.070Z,103424.00
2023-01-24T17:29:28.324Z,103432.44
2023-01-24T17:31:56.177Z,103433.59
2023-01-24T17:34:22.794Z,103439.78
2023-01-24T17:36:49.239Z,103429.22
2023-01-24T17:39:15.908Z,103432.44
2023-01-24T17:41:42.312Z,103436.56
2023-01-24T17:44:09.282Z,103430.78
2023-01-24T17:46:35.677Z,103429.78
2023-01-24T17:49:02.190Z,103424.56
2023-01-24T17:51:28.643Z,103424.81
2023-01-24T17:53:55.101Z,103427.50
2023-01-24T17:56:21.524Z,103424.13
2023-01-24T17:58:48.005Z,103417.25
2023-01-24T18:01:15.969Z,103417.53
2023-01-24T18:03:44.395Z,103415.28
2023-01-24T18:06:11.107Z,103416.84
2023-01-24T18:08:37.698Z,103412.88
2023-01-24T18:11:10.156Z,103416.38
2023-01-24T18:13:37.873Z,103402.03
2023-01-24T18:16:09.856Z,103404.44
2023-01-24T18:18:38.342Z,103401.47
2023-01-24T18:21:17.992Z,103410.06
2023-01-24T18:23:50.108Z,103402.16
2023-01-24T18:26:16.743Z,103407.13
2023-01-24T18:28:43.557Z,103413.16
2023-01-24T18:31:12.025Z,103410.47
2023-01-24T18:33:39.084Z,103407.81
2023-01-24T18:36:24.333Z,103407.09
2023-01-24T18:38:50.801Z,103406.13
2023-01-24T18:41:17.844Z,103408.81
2023-01-24T18:43:44.546Z,103403.19
2023-01-24T18:46:13.058Z,103405.59
2023-01-24T18:48:41.769Z,103407.94
2023-01-24T18:51:17.672Z,103401.63
2023-01-24T18:53:45.357Z,103407.94
2023-01-24T18:56:12.671Z,103406.69
2023-01-24T18:58:40.817Z,103404.72
2023-01-24T19:01:12.370Z,103414.72
2023-01-24T19:03:38.878Z,103407.94
2023-01-24T19:06:05.887Z,103412.31
2023-01-24T19:08:33.629Z,103418.41
2023-01-24T19:11:00.359Z,103421.63
2023-01-24T19:13:27.891Z,103424.03
2023-01-24T19:16:03.708Z,103419.66
2023-01-24T19:18:30.249Z,103419.09
2023-01-24T19:20:57.926Z,103426.28
2023-01-24T19:23:25.405Z,103424.72
2023-01-24T19:25:51.829Z,103416.56
2023-01-24T19:28:18.221Z,103415.59
2023-01-24T19:30:44.808Z,103410.53
2023-01-24T19:33:11.277Z,103414.31
2023-01-24T19:35:37.676Z,103413.47
2023-01-24T19:38:04.151Z,103410.94
2023-01-24T19:40:30.581Z,103421.09
2023-01-24T19:42:57.003Z,103420.66
2023-01-24T19:45:23.414Z,103419.78
2023-01-24T19:47:51.799Z,103422.47
2023-01-24T19:50:19.255Z,103416.44
2023-01-24T19:52:46.130Z,103423.31
2023-01-24T19:55:12.666Z,103427.41
2023-01-24T19:57:39.086Z,103432.06
2023-01-24T20:00:06.292Z,103418.53
2023-01-24T20:02:33.816Z,103425.44
2023-01-24T20:05:00.911Z,103423.75
2023-01-24T20:07:27.440Z,103416.00
2023-01-24T20:09:53.873Z,103416.00
2023-01-24T20:12:20.319Z,103412.75
2023-01-24T20:14:47.020Z,103410.25
2023-01-24T20:17:13.608Z,103420.50
2023-01-24T20:19:46.679Z,103419.78
2023-01-24T20:22:18.811Z,103419.66
2023-01-24T20:24:45.288Z,103420.06
2023-01-24T20:27:11.718Z,103424.31
2023-01-24T20:29:38.208Z,103425.44
2023-01-24T20:32:12.032Z,103424.59
2023-01-24T20:34:45.866Z,103412.63
2023-01-24T20:37:14.021Z,103426.28
2023-01-24T20:39:42.646Z,103423.59
2023-01-24T20:42:09.762Z,103414.03
2023-01-24T20:44:36.185Z,103419.38
2023-01-24T20:47:02.980Z,103419.22
2023-01-24T20:49:29.459Z,103412.47
2023-01-24T20:51:56.140Z,103414.75
2023-01-24T20:54:23.393Z,103412.91
2023-01-24T20:56:54.432Z,103417.09
2023-01-24T20:59:21.053Z,103408.94
2023-01-24T21:01:47.493Z,103410.38
2023-01-24T21:04:14.321Z,103407.41
2023-01-24T21:06:43.918Z,103409.22
2023-01-24T21:09:11.142Z,103398.97
2023-01-24T21:11:38.156Z,103412.75
2023-01-24T21:14:07.334Z,103407.13
2023-01-24T21:16:35.764Z,103404.16
2023-01-24T21:19:06.829Z,103416.84
2023-01-24T21:21:35.944Z,103405.16
2023-01-24T21:24:11.328Z,103403.88
2023-01-24T21:26:39.623Z,103404.03
2023-01-24T21:29:06.355Z,103404.97
2023-01-24T21:31:32.937Z,103409.09
2023-01-24T21:33:59.419Z,103414.97
2023-01-24T21:36:28.804Z,103410.34
2023-01-24T21:38:55.430Z,103401.22
2023-01-24T21:41:41.819Z,103401.91
2023-01-24T21:44:10.164Z,103403.59
2023-01-24T21:46:37.713Z,103396.44
2023-01-24T21:49:08.155Z,103404.72
2023-01-24T21:51:41.051Z,103406.13
2023-01-24T21:54:28.790Z,103394.72
2023-01-24T21:57:33.411Z,103392.47
2023-01-24T22:00:02.158Z,103402.31
2023-01-24T22:02:38.685Z,103406.00
2023-01-24T22:05:05.716Z,103400.66
2023-01-24T22:07:32.570Z,103397.81
2023-01-24T22:10:00.412Z,103397.81
2023-01-24T22:12:28.875Z,103389.25
2023-01-24T22:14:55.711Z,103386.16
2023-01-24T22:17:23.967Z,103389.94
2023-01-24T22:19:55.929Z,103381.34
2023-01-24T22:22:47.112Z,103372.50
2023-01-24T22:25:57.673Z,103375.44
2023-01-24T22:28:24.349Z,103370.78
2023-01-24T22:30:51.198Z,103379.81
2023-01-24T22:33:17.932Z,103370.78
2023-01-24T22:35:47.363Z,103366.31
2023-01-24T22:38:13.860Z,103364.47
2023-01-24T22:40:40.680Z,103368.66
2023-01-24T22:43:07.265Z,103374.75
2023-01-24T22:45:33.693Z,103364.88
2023-01-24T22:48:00.332Z,103366.59
2023-01-24T22:50:27.536Z,103360.66
2023-01-24T22:52:54.148Z,103357.69
2023-01-24T22:55:20.657Z,103361.38
2023-01-24T22:57:47.306Z,103350.22
2023-01-24T23:00:15.115Z,103350.66
2023-01-24T23:02:41.629Z,103353.63
2023-01-24T23:05:08.716Z,103350.81
2023-01-24T23:07:35.440Z,103351.91
2023-01-24T23:10:01.959Z,103342.09
2023-01-24T23:12:47.281Z,103341.63
2023-01-24T23:15:32.740Z,103342.91
2023-01-24T23:18:03.227Z,103337.00
2023-01-24T23:20:48.117Z,103345.88
2023-01-24T23:23:14.863Z,103341.06
2023-01-24T23:25:41.457Z,103339.81
2023-01-24T23:28:08.044Z,103331.66
2023-01-24T23:30:45.803Z,103342.66
2023-01-24T23:33:39.713Z,103336.75
2023-01-24T23:36:07.967Z,103333.34
2023-01-24T23:38:34.604Z,103331.38
2023-01-24T23:41:05.360Z,103327.16
2023-01-24T23:43:31.831Z,103322.06
2023-01-24T23:45:58.286Z,103313.34
2023-01-24T23:48:24.806Z,103313.34
2023-01-24T23:50:58.757Z,103309.13
2023-01-24T23:53:26.209Z,103307.03
2023-01-24T23:55:52.724Z,103303.06
2023-01-24T23:58:19.983Z,103304.63
